createdAt,value
2022-09-05T00:02:30.766Z,17.83
2022-09-05T00:05:18.468Z,17.81
2022-09-05T00:08:00.058Z,17.76
2022-09-05T00:11:14.420Z,17.79
2022-09-05T00:13:33.255Z,17.76
2022-09-05T00:16:24.027Z,17.73
2022-09-05T00:24:21.633Z,17.72
2022-09-05T00:24:30.072Z,17.70
2022-09-05T00:25:31.700Z,17.63
2022-09-05T00:28:26.664Z,17.61
2022-09-05T00:31:55.804Z,17.56
2022-09-05T00:34:16.828Z,17.55
2022-09-05T00:36:48.558Z,17.54
2022-09-05T00:39:21.511Z,17.54
2022-09-05T00:41:52.725Z,17.51
2022-09-05T00:44:24.003Z,17.46
2022-09-05T00:47:01.949Z,17.46
2022-09-05T00:49:38.701Z,17.42
2022-09-05T00:52:13.666Z,17.38
2022-09-05T00:54:59.477Z,17.32
2022-09-05T00:57:45.055Z,17.31
2022-09-05T01:00:17.789Z,17.28
2022-09-05T01:03:09.543Z,17.21
2022-09-05T01:05:50.549Z,17.17
2022-09-05T01:08:29.115Z,17.17
2022-09-05T01:11:05.463Z,17.16
2022-09-05T01:13:42.122Z,17.13
2022-09-05T01:16:22.756Z,17.13
2022-09-05T01:19:00.499Z,17.11
2022-09-05T01:21:55.865Z,17.16
2022-09-05T01:24:47.111Z,17.15
2022-09-05T01:29:15.426Z,17.16
2022-09-05T01:30:53.335Z,17.17
2022-09-05T01:33:33.819Z,17.16
2022-09-05T01:36:21.809Z,17.14
2022-09-05T01:39:58.097Z,17.13
2022-09-05T01:41:58.527Z,17.08
2022-09-05T01:44:55.256Z,17.05
2022-09-05T01:47:42.161Z,17.02
2022-09-05T01:50:28.376Z,16.98
2022-09-05T01:53:13.263Z,16.92
2022-09-05T01:56:05.132Z,16.86
2022-09-05T01:58:56.984Z,16.84
2022-09-05T02:01:36.870Z,16.82
2022-09-05T02:04:34.235Z,16.79
2022-09-05T02:07:22.482Z,16.71
2022-09-05T02:10:29.671Z,16.71
2022-09-05T02:13:05.031Z,16.69
2022-09-05T02:15:55.266Z,16.72
2022-09-05T02:18:40.817Z,16.66
2022-09-05T02:21:16.916Z,16.63
2022-09-05T02:23:49.660Z,16.62
2022-09-05T02:26:19.868Z,16.57
2022-09-05T02:28:54.128Z,16.54
2022-09-05T02:31:30.698Z,16.55
2022-09-05T02:34:09.558Z,16.55
2022-09-05T02:36:44.645Z,16.53
2022-09-05T02:45:00.200Z,16.48
2022-09-05T02:45:18.999Z,16.49
2022-09-05T02:45:26.814Z,16.49
2022-09-05T02:48:15.946Z,16.44
2022-09-05T02:55:43.006Z,16.41
2022-09-05T02:57:34.203Z,16.40
2022-09-05T02:57:38.173Z,16.43
2022-09-05T02:59:58.394Z,16.46
2022-09-05T03:02:32.796Z,16.41
2022-09-05T03:05:10.418Z,16.39
2022-09-05T03:08:03.277Z,16.38
2022-09-05T03:11:03.361Z,16.38
2022-09-05T03:14:09.136Z,16.34
2022-09-05T03:17:15.071Z,16.31
2022-09-05T03:20:20.661Z,16.28
2022-09-05T03:23:15.271Z,16.28
2022-09-05T03:26:25.019Z,16.22
2022-09-05T03:29:20.315Z,16.22
2022-09-05T03:32:08.331Z,16.17
2022-09-05T03:34:59.559Z,16.12
2022-09-05T03:37:51.561Z,16.12
2022-09-05T03:40:49.756Z,16.10
2022-09-05T03:43:47.878Z,16.12
2022-09-05T03:46:36.979Z,16.11
2022-09-05T03:52:15.208Z,16.10
2022-09-05T03:57:08.043Z,16.08
2022-09-05T03:57:25.904Z,16.05
2022-09-05T03:59:22.047Z,16.02
2022-09-05T04:05:54.614Z,16.01
2022-09-05T04:08:19.337Z,16.03
2022-09-05T04:08:20.870Z,16.00
2022-09-05T04:10:35.316Z,15.97
2022-09-05T04:13:17.801Z,15.98
2022-09-05T04:15:54.723Z,15.94
2022-09-05T04:18:33.270Z,15.88
2022-09-05T04:21:07.553Z,15.85
2022-09-05T04:23:47.666Z,15.83
2022-09-05T04:26:28.858Z,15.82
2022-09-05T04:29:15.069Z,15.80
2022-09-05T04:31:51.980Z,15.78
2022-09-05T04:34:51.299Z,15.72
2022-09-05T04:37:48.199Z,15.67
2022-09-05T04:40:40.178Z,15.65
2022-09-05T04:43:13.383Z,15.61
2022-09-05T04:45:47.549Z,15.61
2022-09-05T04:48:22.181Z,15.59
2022-09-05T04:51:11.606Z,15.57
2022-09-05T04:54:01.148Z,15.56
2022-09-05T04:56:37.265Z,15.55
2022-09-05T05:02:47.979Z,15.50
2022-09-05T05:06:17.345Z,15.49
2022-09-05T05:06:23.226Z,15.49
2022-09-05T05:07:59.263Z,15.46
2022-09-05T05:14:21.650Z,15.44
2022-09-05T05:17:55.746Z,15.42
2022-09-05T05:18:07.794Z,15.42
2022-09-05T05:19:21.521Z,15.44
2022-09-05T05:21:52.889Z,15.43
2022-09-05T05:24:25.123Z,15.45
2022-09-05T05:27:02.911Z,15.45
2022-09-05T05:29:44.368Z,15.45
2022-09-05T05:32:19.601Z,15.47
2022-09-05T05:35:12.897Z,15.47
2022-09-05T05:37:46.936Z,15.48
2022-09-05T05:40:25.566Z,15.50
2022-09-05T05:42:54.829Z,15.51
2022-09-05T05:45:29.095Z,15.55
2022-09-05T05:48:05.079Z,15.59
2022-09-05T05:50:50.880Z,15.63
2022-09-05T05:53:43.919Z,15.64
2022-09-05T05:56:37.576Z,15.70
2022-09-05T05:59:57.641Z,15.77
2022-09-05T06:03:25.908Z,15.80
2022-09-05T06:06:09.666Z,15.91
2022-09-05T06:12:16.196Z,16.01
2022-09-05T06:14:57.482Z,16.13
2022-09-05T06:15:32.073Z,16.25
2022-09-05T06:18:42.538Z,16.36
2022-09-05T06:22:07.342Z,16.54
2022-09-05T06:25:16.655Z,16.70
2022-09-05T06:28:18.623Z,16.81
2022-09-05T06:30:59.274Z,16.93
2022-09-05T06:33:57.571Z,17.12
2022-09-05T06:36:49.062Z,17.23
2022-09-05T06:39:26.853Z,17.30
2022-09-05T06:42:30.624Z,17.46
2022-09-05T06:45:28.434Z,17.58
2022-09-05T06:48:03.238Z,17.74
2022-09-05T06:51:07.766Z,17.84
2022-09-05T06:54:17.259Z,18.02
2022-09-05T06:57:03.564Z,18.22
2022-09-05T07:00:22.311Z,18.35
2022-09-05T07:03:13.510Z,18.51
2022-09-05T07:05:46.478Z,18.73
2022-09-05T07:08:35.826Z,18.87
2022-09-05T07:11:18.293Z,19.03
2022-09-05T07:13:57.658Z,19.20
2022-09-05T07:16:38.927Z,19.36
2022-09-05T07:19:27.094Z,19.64
2022-09-05T07:22:45.932Z,19.74
2022-09-05T07:25:08.692Z,19.91
2022-09-05T07:28:25.666Z,20.09
2022-09-05T07:30:33.456Z,20.31
2022-09-05T07:33:04.763Z,20.47
2022-09-05T07:35:41.651Z,20.68
2022-09-05T07:38:16.120Z,20.94
2022-09-05T07:40:53.357Z,21.11
2022-09-05T07:43:27.162Z,21.23
2022-09-05T07:46:11.370Z,21.44
2022-09-05T07:48:44.365Z,21.68
2022-09-05T07:56:49.937Z,21.99
2022-09-05T07:57:13.099Z,22.37
2022-09-05T07:57:31.238Z,22.55
2022-09-05T08:00:27.247Z,22.80
2022-09-05T08:03:01.072Z,23.05
2022-09-05T08:05:37.379Z,23.33
2022-09-05T08:08:10.733Z,23.54
2022-09-05T08:11:22.275Z,23.70
2022-09-05T08:13:51.608Z,23.96
2022-09-05T08:16:23.559Z,24.03
2022-09-05T08:18:57.469Z,24.27
2022-09-05T08:21:31.544Z,24.43
2022-09-05T08:24:13.884Z,24.61
2022-09-05T08:26:47.240Z,24.76
2022-09-05T08:29:27.196Z,24.97
2022-09-05T08:32:03.347Z,25.23
2022-09-05T08:34:44.810Z,25.49
2022-09-05T08:37:20.958Z,25.55
2022-09-05T08:39:57.500Z,25.86
2022-09-05T08:42:54.177Z,25.97
2022-09-05T08:46:40.902Z,26.20
2022-09-05T08:48:46.483Z,26.42
2022-09-05T08:51:28.375Z,26.69
2022-09-05T08:54:13.372Z,26.96
2022-09-05T08:56:51.204Z,27.17
2022-09-05T08:59:47.786Z,27.22
2022-09-05T09:03:04.421Z,27.33
2022-09-05T09:06:14.241Z,27.42
2022-09-05T09:09:14.756Z,27.67
2022-09-05T09:11:50.460Z,27.99
2022-09-05T09:14:37.691Z,28.27
2022-09-05T09:17:19.495Z,28.56
2022-09-05T09:19:53.861Z,28.90
2022-09-05T09:22:37.710Z,29.12
2022-09-05T09:25:14.739Z,29.33
2022-09-05T09:28:48.487Z,29.49
2022-09-05T09:31:04.148Z,29.53
2022-09-05T09:33:51.983Z,29.64
2022-09-05T09:36:45.639Z,29.96
2022-09-05T09:39:38.633Z,30.26
2022-09-05T09:42:34.253Z,30.28
2022-09-05T09:45:30.027Z,30.48
2022-09-05T09:48:37.601Z,30.33
2022-09-05T09:51:31.924Z,30.49
2022-09-05T09:54:18.955Z,30.75
2022-09-05T09:57:04.903Z,30.98
2022-09-05T10:00:06.687Z,31.16
2022-09-05T10:05:44.203Z,31.46
2022-09-05T10:10:56.800Z,31.52
2022-09-05T10:10:57.757Z,31.80
2022-09-05T10:13:09.057Z,32.25
2022-09-05T10:15:53.806Z,32.42
2022-09-05T10:18:38.811Z,32.67
2022-09-05T10:21:32.452Z,32.82
2022-09-05T10:24:35.571Z,32.84
2022-09-05T10:27:32.988Z,32.96
2022-09-05T10:30:09.884Z,33.25
2022-09-05T10:35:07.767Z,33.41
2022-09-05T10:35:37.699Z,33.57
2022-09-05T10:38:11.444Z,33.23
2022-09-05T10:41:11.321Z,33.48
2022-09-05T10:43:36.216Z,33.61
2022-09-05T10:46:39.846Z,33.89
2022-09-05T10:49:12.024Z,34.04
2022-09-05T10:51:52.127Z,33.87
2022-09-05T10:54:35.736Z,34.10
2022-09-05T10:57:15.301Z,34.32
2022-09-05T11:02:20.740Z,34.45
2022-09-05T11:02:58.208Z,34.53
2022-09-05T11:05:30.437Z,34.72
2022-09-05T11:08:06.987Z,34.77
2022-09-05T11:10:38.424Z,34.78
2022-09-05T11:13:17.137Z,34.93
2022-09-05T11:16:06.761Z,34.96
2022-09-05T11:18:57.322Z,35.17
2022-09-05T11:22:10.285Z,35.67
2022-09-05T11:24:50.753Z,35.39
2022-09-05T11:27:27.344Z,35.41
2022-09-05T11:29:59.429Z,35.48
2022-09-05T11:37:35.843Z,35.28
2022-09-05T11:39:53.546Z,35.78
2022-09-05T11:40:06.457Z,36.15
2022-09-05T11:42:36.187Z,35.93
2022-09-05T11:45:29.775Z,36.23
2022-09-05T11:48:44.528Z,36.65
2022-09-05T11:51:51.826Z,36.99
2022-09-05T11:54:51.642Z,37.01
2022-09-05T11:57:38.746Z,37.35
2022-09-05T12:00:31.399Z,37.38
2022-09-05T12:03:59.304Z,37.00
2022-09-05T12:07:30.542Z,37.81
2022-09-05T12:10:09.879Z,37.75
2022-09-05T12:13:17.750Z,37.54
2022-09-05T12:16:07.428Z,37.80
2022-09-05T12:18:44.001Z,37.36
2022-09-05T12:21:27.757Z,37.55
2022-09-05T12:24:59.181Z,37.68
2022-09-05T12:27:40.842Z,38.20
2022-09-05T12:29:59.628Z,37.67
2022-09-05T12:33:47.853Z,38.31
2022-09-05T12:36:10.059Z,38.19
2022-09-05T12:41:33.509Z,38.29
2022-09-05T12:41:44.939Z,38.42
2022-09-05T12:44:50.968Z,37.80
2022-09-05T12:47:23.127Z,38.10
2022-09-05T12:50:02.826Z,37.62
2022-09-05T12:52:42.741Z,38.10
2022-09-05T12:55:16.610Z,38.06
2022-09-05T13:00:26.258Z,38.60
2022-09-05T13:03:08.221Z,38.51
2022-09-05T13:03:53.367Z,38.83
2022-09-05T13:06:30.921Z,38.57
2022-09-05T13:09:05.624Z,38.60
2022-09-05T13:14:26.373Z,38.63
2022-09-05T13:14:56.948Z,38.50
2022-09-05T13:17:44.245Z,38.25
2022-09-05T13:20:19.427Z,38.44
2022-09-05T13:22:51.070Z,38.88
2022-09-05T13:25:25.110Z,38.96
2022-09-05T13:27:59.231Z,38.55
2022-09-05T13:34:55.674Z,37.59
2022-09-05T13:38:01.205Z,37.37
2022-09-05T13:38:08.168Z,37.15
2022-09-05T13:39:07.560Z,37.49
2022-09-05T13:41:37.931Z,37.51
2022-09-05T13:44:26.337Z,37.45
2022-09-05T13:47:00.893Z,37.30
2022-09-05T13:49:37.213Z,37.17
2022-09-05T13:52:26.257Z,37.68
2022-09-05T13:55:08.598Z,37.96
2022-09-05T13:57:42.358Z,37.40
2022-09-05T14:00:40.128Z,37.27
2022-09-05T14:03:56.929Z,37.45
2022-09-05T14:06:48.738Z,37.86
2022-09-05T14:09:35.745Z,37.64
2022-09-05T14:12:15.237Z,37.92
2022-09-05T14:17:57.908Z,38.32
2022-09-05T14:20:49.623Z,37.94
2022-09-05T14:23:24.241Z,37.74
2022-09-05T14:25:56.821Z,37.80
2022-09-05T14:28:30.655Z,37.74
2022-09-05T14:33:35.526Z,37.40
2022-09-05T14:37:40.299Z,37.49
2022-09-05T14:38:00.925Z,37.54
2022-09-05T14:40:29.532Z,37.15
2022-09-05T14:43:37.842Z,37.28
2022-09-05T14:46:24.126Z,36.78
2022-09-05T14:49:18.267Z,36.45
2022-09-05T14:51:48.716Z,36.10
2022-09-05T15:00:38.663Z,35.93
2022-09-05T15:02:52.079Z,35.57
2022-09-05T15:03:05.544Z,35.45
2022-09-05T15:05:44.759Z,35.24
2022-09-05T15:11:15.224Z,34.94
2022-09-05T15:12:23.539Z,34.83
2022-09-05T15:14:03.725Z,34.56
2022-09-05T15:16:35.639Z,34.51
2022-09-05T15:19:04.024Z,34.64
2022-09-05T15:21:38.183Z,34.41
2022-09-05T15:24:21.181Z,34.55
2022-09-05T15:26:53.568Z,34.47
2022-09-05T15:29:24.659Z,34.37
2022-09-05T15:32:09.639Z,33.69
2022-09-05T15:34:41.699Z,33.70
2022-09-05T15:37:29.857Z,33.61
2022-09-05T15:40:03.124Z,33.57
2022-09-05T15:42:33.926Z,33.28
2022-09-05T15:45:10.193Z,33.29
2022-09-05T15:47:43.440Z,33.12
2022-09-05T15:50:22.375Z,33.11
2022-09-05T15:52:55.753Z,32.95
2022-09-05T15:55:26.218Z,32.84
2022-09-05T15:57:56.608Z,32.88
2022-09-05T16:00:51.465Z,32.62
2022-09-05T16:04:47.789Z,32.59
2022-09-05T16:10:31.359Z,32.39
2022-09-05T16:10:37.634Z,32.42
2022-09-05T16:12:19.223Z,32.27
2022-09-05T16:15:55.238Z,32.18
2022-09-05T16:23:15.839Z,32.08
2022-09-05T16:23:20.093Z,32.07
2022-09-05T16:23:40.431Z,32.02
2022-09-05T16:26:14.222Z,31.89
2022-09-05T16:28:58.836Z,31.53
2022-09-05T16:31:37.966Z,31.43
2022-09-05T16:34:13.113Z,31.48
2022-09-05T16:37:07.987Z,31.34
2022-09-05T16:39:45.029Z,31.18
2022-09-05T16:42:18.434Z,31.11
2022-09-05T16:44:52.270Z,31.15
2022-09-05T16:47:28.889Z,31.09
2022-09-05T16:50:05.100Z,30.95
2022-09-05T16:53:00.089Z,30.94
2022-09-05T16:55:36.733Z,30.92
2022-09-05T16:58:14.521Z,30.85
2022-09-05T17:00:51.361Z,30.66
2022-09-05T17:03:31.183Z,30.59
2022-09-05T17:06:13.454Z,30.47
2022-09-05T17:08:56.815Z,30.42
2022-09-05T17:11:47.959Z,30.28
2022-09-05T17:14:34.790Z,30.13
2022-09-05T17:17:19.625Z,30.07
2022-09-05T17:20:08.953Z,30.02
2022-09-05T17:25:42.998Z,29.79
2022-09-05T17:29:27.605Z,29.44
2022-09-05T17:29:30.256Z,29.49
2022-09-05T17:31:58.029Z,29.25
2022-09-05T17:34:49.704Z,29.04
2022-09-05T17:37:44.678Z,28.85
2022-09-05T17:40:45.752Z,28.64
2022-09-05T17:43:28.894Z,28.57
2022-09-05T17:46:13.230Z,28.37
2022-09-05T17:49:19.642Z,28.32
2022-09-05T17:52:20.795Z,28.22
2022-09-05T17:54:52.956Z,28.04
2022-09-05T17:57:36.223Z,28.01
2022-09-05T18:00:49.536Z,27.96
2022-09-05T18:03:32.436Z,27.79
2022-09-05T18:06:03.934Z,27.55
2022-09-05T18:08:52.846Z,27.33
2022-09-05T18:11:44.869Z,27.11
2022-09-05T18:14:42.736Z,26.93
2022-09-05T18:17:46.229Z,26.77
2022-09-05T18:20:18.496Z,26.65
2022-09-05T18:23:37.424Z,26.56
2022-09-05T18:26:00.165Z,26.39
2022-09-05T18:28:35.644Z,26.27
2022-09-05T18:31:51.652Z,26.13
2022-09-05T18:34:45.589Z,25.98
2022-09-05T18:37:51.150Z,25.93
2022-09-05T18:40:46.002Z,25.77
2022-09-05T18:43:23.979Z,25.63
2022-09-05T18:45:58.613Z,25.57
2022-09-05T18:48:42.800Z,25.50
2022-09-05T18:51:16.333Z,25.37
2022-09-05T18:53:48.016Z,25.39
2022-09-05T18:56:27.414Z,25.26
2022-09-05T18:59:10.132Z,25.20
2022-09-05T19:01:45.571Z,25.11
2022-09-05T19:04:40.650Z,25.02
2022-09-05T19:07:13.185Z,24.96
2022-09-05T19:10:33.728Z,24.94
2022-09-05T19:12:53.806Z,24.90
2022-09-05T19:15:24.777Z,24.82
2022-09-05T19:18:26.233Z,24.72
2022-09-05T19:21:12.028Z,24.68
2022-09-05T19:23:49.618Z,24.69
2022-09-05T19:26:18.621Z,24.62
2022-09-05T19:36:44.757Z,24.46
2022-09-05T19:37:08.705Z,24.38
2022-09-05T19:37:14.269Z,24.39
2022-09-05T19:37:38.555Z,24.40
2022-09-05T19:44:32.426Z,24.28
2022-09-05T19:47:34.474Z,24.21
2022-09-05T19:47:34.809Z,24.18
2022-09-05T19:48:44.825Z,24.18
2022-09-05T19:51:19.853Z,24.08
2022-09-05T19:54:03.781Z,24.11
2022-09-05T19:56:37.069Z,24.06
2022-09-05T19:59:17.036Z,24.03
2022-09-05T20:01:46.942Z,24.00
2022-09-05T20:04:18.774Z,23.98
2022-09-05T20:06:50.089Z,23.90
2022-09-05T20:09:20.513Z,23.84
2022-09-05T20:11:50.555Z,23.84
2022-09-05T20:16:49.740Z,23.66
2022-09-05T20:19:28.677Z,23.64
2022-09-05T20:22:18.738Z,23.60
2022-09-05T20:24:50.558Z,23.51
2022-09-05T20:27:18.797Z,23.36
2022-09-05T20:29:55.983Z,23.33
2022-09-05T20:32:39.698Z,23.29
2022-09-05T20:40:43.344Z,23.27
2022-09-05T20:43:14.514Z,23.27
2022-09-05T20:43:19.847Z,23.21
2022-09-05T20:43:58.149Z,23.25
2022-09-05T20:53:35.170Z,23.35
2022-09-05T20:54:16.795Z,23.34
2022-09-05T20:54:25.608Z,23.37
2022-09-05T20:55:38.741Z,23.39
2022-09-05T20:57:51.295Z,23.42
2022-09-05T21:00:22.303Z,23.44
2022-09-05T21:02:56.012Z,23.45
2022-09-05T21:05:31.284Z,23.41
2022-09-05T21:08:16.787Z,23.45
2022-09-05T21:10:55.982Z,23.46
2022-09-05T21:13:28.068Z,23.45
2022-09-05T21:15:56.993Z,23.45
2022-09-05T21:18:32.974Z,23.40
2022-09-05T21:21:10.341Z,23.37
2022-09-05T21:24:16.280Z,23.34
2022-09-05T21:26:49.543Z,23.31
2022-09-05T21:29:27.411Z,23.26
2022-09-05T21:32:14.345Z,23.19
2022-09-05T21:34:46.266Z,23.10
2022-09-05T21:37:16.580Z,23.10
2022-09-05T21:39:59.753Z,23.06
2022-09-05T21:47:33.263Z,23.02
2022-09-05T21:47:47.980Z,22.90
2022-09-05T21:48:11.817Z,22.89
2022-09-05T21:50:45.303Z,22.84
2022-09-05T21:57:03.182Z,22.82
2022-09-05T21:59:28.920Z,22.87
2022-09-05T21:59:36.659Z,22.61
2022-09-05T22:01:58.461Z,22.62
2022-09-05T22:04:27.006Z,22.58
2022-09-05T22:06:57.640Z,22.39
2022-09-05T22:09:26.827Z,22.33
2022-09-05T22:11:54.977Z,22.28
2022-09-05T22:14:25.573Z,22.18
2022-09-05T22:16:56.830Z,22.16
2022-09-05T22:19:37.563Z,22.01
2022-09-05T22:22:15.822Z,22.05
2022-09-05T22:24:47.890Z,22.03
2022-09-05T22:27:20.129Z,21.94
2022-09-05T22:29:51.080Z,21.94
2022-09-05T22:32:34.139Z,21.92
2022-09-05T22:35:27.121Z,21.88
2022-09-05T22:37:59.356Z,21.84
2022-09-05T22:40:43.022Z,21.78
2022-09-05T22:43:12.225Z,21.73
2022-09-05T22:45:41.945Z,21.71
2022-09-05T22:48:12.158Z,21.73
2022-09-05T22:50:41.153Z,21.71
2022-09-05T22:53:10.579Z,21.61
2022-09-05T22:55:40.335Z,21.59
2022-09-05T22:58:10.670Z,21.65
2022-09-05T23:00:39.329Z,21.61
2022-09-05T23:03:09.063Z,21.60
2022-09-05T23:05:37.188Z,21.59
2022-09-05T23:08:06.871Z,21.63
2022-09-05T23:10:36.438Z,21.66
2022-09-05T23:13:05.750Z,21.70
2022-09-05T23:15:36.356Z,21.63
2022-09-05T23:18:05.147Z,21.55
2022-09-05T23:20:35.548Z,21.62
2022-09-05T23:23:05.631Z,21.56
2022-09-05T23:25:33.974Z,21.59
2022-09-05T23:28:06.946Z,21.60
2022-09-05T23:30:35.250Z,21.52
2022-09-05T23:33:06.151Z,21.58
2022-09-05T23:35:36.126Z,21.63
2022-09-05T23:38:04.794Z,21.56
2022-09-05T23:40:32.790Z,21.53
2022-09-05T23:43:01.334Z,21.45
2022-09-05T23:45:31.628Z,21.56
2022-09-05T23:48:00.120Z,21.58
2022-09-05T23:50:28.827Z,21.57
2022-09-05T23:53:03.540Z,21.54
2022-09-05T23:55:33.629Z,21.47
2022-09-05T23:58:01.762Z,21.48
